createdAt,value
2022-08-08T00:02:03.508Z,1.30
2022-08-08T00:04:56.863Z,1.30
2022-08-08T00:07:47.058Z,1.30
2022-08-08T00:10:28.869Z,1.40
2022-08-08T00:13:10.602Z,1.30
2022-08-08T00:15:56.470Z,1.40
2022-08-08T00:18:34.558Z,1.30
2022-08-08T00:21:07.782Z,1.30
2022-08-08T00:24:02.704Z,1.30
2022-08-08T00:26:36.734Z,1.50
2022-08-08T00:29:45.702Z,1.40
2022-08-08T00:32:36.504Z,1.30
2022-08-08T00:35:18.739Z,1.50
2022-08-08T00:38:32.009Z,1.70
2022-08-08T00:41:54.554Z,1.50
2022-08-08T00:44:27.699Z,1.50
2022-08-08T00:48:05.577Z,1.60
2022-08-08T00:50:48.275Z,1.40
2022-08-08T00:54:08.982Z,1.60
2022-08-08T00:57:08.782Z,1.50
2022-08-08T00:59:55.464Z,1.50
2022-08-08T01:04:01.089Z,1.60
2022-08-08T01:06:49.894Z,1.30
2022-08-08T01:09:48.783Z,1.60
2022-08-08T01:12:37.562Z,1.70
2022-08-08T01:15:53.400Z,1.40
2022-08-08T01:19:02.687Z,1.70
2022-08-08T01:22:34.909Z,1.60
2022-08-08T01:25:26.252Z,1.30
2022-08-08T01:28:18.040Z,1.90
2022-08-08T01:32:15.007Z,1.70
2022-08-08T01:34:44.562Z,1.50
2022-08-08T01:37:59.256Z,1.60
2022-08-08T01:41:15.873Z,1.60
2022-08-08T01:44:07.022Z,1.60
2022-08-08T01:48:13.733Z,2.10
2022-08-08T01:50:17.131Z,1.50
2022-08-08T01:55:45.149Z,1.80
2022-08-08T01:56:28.358Z,1.90
2022-08-08T01:59:22.260Z,1.60
2022-08-08T02:02:34.865Z,1.50
2022-08-08T02:05:56.670Z,1.60
2022-08-08T02:09:01.423Z,1.90
2022-08-08T02:11:58.901Z,1.60
2022-08-08T02:14:55.859Z,1.90
2022-08-08T02:17:44.568Z,1.60
2022-08-08T02:21:00.892Z,2.10
2022-08-08T02:23:35.276Z,1.70
2022-08-08T02:26:15.773Z,2.10
2022-08-08T02:29:18.770Z,1.70
2022-08-08T02:32:38.618Z,2.10
2022-08-08T02:36:04.334Z,2.00
2022-08-08T02:38:37.443Z,2.10
2022-08-08T02:42:07.776Z,2.30
2022-08-08T02:45:54.024Z,2.10
2022-08-08T02:48:50.347Z,2.30
2022-08-08T02:51:56.508Z,2.20
2022-08-08T02:54:50.914Z,2.60
2022-08-08T02:57:44.460Z,2.50
2022-08-08T03:00:47.216Z,3.30
2022-08-08T03:05:02.701Z,2.60
2022-08-08T03:07:25.260Z,2.00
2022-08-08T03:10:32.893Z,2.60
2022-08-08T03:15:56.197Z,2.20
2022-08-08T03:17:10.322Z,2.30
2022-08-08T03:20:03.806Z,2.10
2022-08-08T03:22:38.766Z,1.90
2022-08-08T03:25:17.797Z,2.90
2022-08-08T03:28:12.920Z,2.70
2022-08-08T03:30:48.828Z,2.70
2022-08-08T03:33:55.788Z,2.20
2022-08-08T03:36:10.599Z,2.10
2022-08-08T03:38:56.528Z,2.60
2022-08-08T03:42:12.547Z,2.60
2022-08-08T03:44:25.364Z,2.40
2022-08-08T03:46:53.208Z,2.30
2022-08-08T03:49:56.548Z,2.90
2022-08-08T03:52:13.844Z,2.70
2022-08-08T03:55:02.252Z,2.30
2022-08-08T03:58:31.305Z,2.50
2022-08-08T04:00:26.064Z,2.40
2022-08-08T04:03:11.562Z,2.70
2022-08-08T04:05:49.594Z,2.90
2022-08-08T04:08:33.300Z,3.10
2022-08-08T04:11:11.285Z,2.70
2022-08-08T04:14:04.318Z,3.10
2022-08-08T04:16:38.525Z,3.00
2022-08-08T04:19:24.199Z,2.90
2022-08-08T04:21:56.104Z,2.80
2022-08-08T04:24:28.619Z,3.20
2022-08-08T04:26:58.646Z,3.30
2022-08-08T04:29:36.946Z,3.10
2022-08-08T04:32:10.635Z,3.10
2022-08-08T04:34:56.073Z,3.20
2022-08-08T04:37:32.429Z,3.40
2022-08-08T04:40:07.904Z,3.90
2022-08-08T04:42:46.725Z,3.50
2022-08-08T04:45:27.279Z,3.50
2022-08-08T04:48:00.304Z,3.50
2022-08-08T04:50:34.330Z,3.60
2022-08-08T04:53:52.524Z,3.60
2022-08-08T04:55:55.893Z,3.80
2022-08-08T04:58:25.689Z,3.70
2022-08-08T05:00:52.909Z,3.80
2022-08-08T05:04:09.033Z,4.60
2022-08-08T05:06:12.697Z,3.60
2022-08-08T05:08:51.948Z,4.30
2022-08-08T05:11:25.888Z,4.00
2022-08-08T05:13:59.780Z,3.60
2022-08-08T05:16:54.650Z,4.00
2022-08-08T05:20:11.851Z,3.60
2022-08-08T05:22:08.842Z,3.80
2022-08-08T05:24:40.190Z,4.40
2022-08-08T05:27:08.002Z,4.80
2022-08-08T05:29:37.269Z,4.50
2022-08-08T05:32:08.111Z,4.50
2022-08-08T05:34:49.258Z,4.90
2022-08-08T05:37:39.263Z,3.90
2022-08-08T05:40:14.582Z,4.70
2022-08-08T05:42:49.187Z,5.80
2022-08-08T05:45:25.087Z,4.90
2022-08-08T05:48:08.309Z,5.40
2022-08-08T05:50:38.474Z,4.80
2022-08-08T05:53:53.635Z,4.50
2022-08-08T05:56:07.925Z,5.20
2022-08-08T05:58:54.192Z,5.10
2022-08-08T06:01:56.612Z,4.70
2022-08-08T06:04:22.892Z,5.10
2022-08-08T06:06:56.797Z,5.20
2022-08-08T06:09:58.556Z,5.90
2022-08-08T06:12:30.341Z,4.90
2022-08-08T06:15:03.283Z,5.80
2022-08-08T06:17:51.240Z,5.00
2022-08-08T06:20:25.738Z,4.10
2022-08-08T06:22:56.505Z,5.10
2022-08-08T06:25:58.789Z,4.90
2022-08-08T06:28:54.044Z,4.50
2022-08-08T06:31:52.460Z,4.90
2022-08-08T06:34:25.822Z,4.80
2022-08-08T06:37:00.186Z,5.10
2022-08-08T06:39:34.014Z,5.00
2022-08-08T06:42:03.067Z,4.80
2022-08-08T06:44:42.666Z,4.90
2022-08-08T06:47:10.817Z,5.10
2022-08-08T06:49:56.438Z,5.90
2022-08-08T06:52:27.573Z,5.10
2022-08-08T06:54:55.609Z,4.30
2022-08-08T06:57:25.182Z,4.20
2022-08-08T07:00:10.818Z,5.20
2022-08-08T07:02:52.089Z,5.70
2022-08-08T07:05:25.134Z,5.20
2022-08-08T07:08:21.328Z,5.00
2022-08-08T07:10:52.095Z,5.60
2022-08-08T07:13:25.151Z,5.10
2022-08-08T07:16:05.696Z,5.30
2022-08-08T07:19:24.095Z,4.70
2022-08-08T07:22:12.013Z,5.90
2022-08-08T07:25:02.407Z,5.40
2022-08-08T07:28:00.515Z,6.10
2022-08-08T07:30:32.173Z,5.00
2022-08-08T07:33:02.047Z,5.00
2022-08-08T07:35:31.217Z,4.30
2022-08-08T07:38:10.685Z,4.30
2022-08-08T07:41:04.777Z,5.00
2022-08-08T07:43:37.231Z,4.90
2022-08-08T07:46:23.642Z,4.60
2022-08-08T07:48:55.723Z,5.80
2022-08-08T07:51:53.111Z,4.90
2022-08-08T07:54:39.418Z,4.70
2022-08-08T07:57:43.297Z,4.50
2022-08-08T08:00:17.453Z,4.10
2022-08-08T08:03:01.601Z,4.60
2022-08-08T08:05:33.458Z,5.10
2022-08-08T08:08:32.308Z,4.70
2022-08-08T08:11:00.277Z,4.60
2022-08-08T08:14:08.283Z,3.80
2022-08-08T08:16:36.157Z,4.90
2022-08-08T08:19:12.794Z,4.00
2022-08-08T08:21:57.211Z,4.10
2022-08-08T08:24:51.251Z,3.80
2022-08-08T08:27:22.888Z,4.30
2022-08-08T08:29:54.070Z,5.00
2022-08-08T08:32:35.568Z,3.30
2022-08-08T08:35:06.604Z,3.70
2022-08-08T08:37:40.317Z,3.40
2022-08-08T08:40:22.680Z,3.60
2022-08-08T08:42:54.782Z,4.30
2022-08-08T08:45:26.374Z,4.20
2022-08-08T08:48:00.873Z,3.10
2022-08-08T08:50:35.670Z,3.30
2022-08-08T08:53:27.652Z,3.60
2022-08-08T08:56:04.430Z,3.30
2022-08-08T08:58:42.289Z,3.10
2022-08-08T09:01:16.101Z,3.50
2022-08-08T09:03:50.499Z,3.50
2022-08-08T09:06:36.976Z,3.40
2022-08-08T09:09:25.977Z,3.40
2022-08-08T09:12:08.550Z,3.00
2022-08-08T09:14:42.893Z,3.00
2022-08-08T09:17:19.147Z,3.40
2022-08-08T09:21:58.546Z,3.40
2022-08-08T09:22:36.180Z,3.20
2022-08-08T09:25:09.807Z,3.10
2022-08-08T09:27:41.777Z,3.10
2022-08-08T09:30:28.057Z,3.30
2022-08-08T09:33:12.925Z,3.30
2022-08-08T09:35:49.966Z,2.80
2022-08-08T09:38:34.451Z,3.40
2022-08-08T09:41:06.489Z,3.10
2022-08-08T09:44:06.939Z,3.30
2022-08-08T09:46:45.142Z,2.70
2022-08-08T09:49:42.746Z,2.90
2022-08-08T09:52:46.777Z,3.10
2022-08-08T09:54:58.833Z,2.70
2022-08-08T09:57:46.302Z,3.10
2022-08-08T10:00:49.701Z,3.40
2022-08-08T10:03:06.033Z,2.70
2022-08-08T10:05:37.897Z,2.90
2022-08-08T10:08:09.966Z,2.90
2022-08-08T10:10:41.449Z,3.00
2022-08-08T10:13:35.661Z,3.00
2022-08-08T10:16:05.927Z,3.50
2022-08-08T10:18:36.793Z,2.90
2022-08-08T10:21:22.830Z,3.00
2022-08-08T10:23:58.606Z,3.20
2022-08-08T10:26:51.922Z,2.30
2022-08-08T10:29:58.316Z,3.00
2022-08-08T10:32:33.015Z,2.30
2022-08-08T10:35:11.684Z,2.90
2022-08-08T10:38:09.197Z,2.80
2022-08-08T10:40:42.851Z,2.60
2022-08-08T10:43:11.857Z,3.10
2022-08-08T10:45:57.235Z,2.60
2022-08-08T10:48:57.496Z,3.00
2022-08-08T10:51:47.536Z,2.90
2022-08-08T10:54:25.066Z,3.10
2022-08-08T10:57:08.865Z,3.50
2022-08-08T10:59:39.311Z,2.50
2022-08-08T11:02:09.111Z,3.10
2022-08-08T11:04:53.383Z,2.70
2022-08-08T11:08:30.168Z,2.80
2022-08-08T11:10:28.616Z,2.50
2022-08-08T11:15:58.809Z,2.50
2022-08-08T11:18:30.495Z,1.90
2022-08-08T11:21:09.053Z,2.40
2022-08-08T11:23:41.811Z,2.10
2022-08-08T11:26:19.310Z,2.90
2022-08-08T11:28:47.248Z,2.70
2022-08-08T11:31:18.387Z,3.40
2022-08-08T11:34:02.976Z,3.20
2022-08-08T11:36:36.547Z,3.30
2022-08-08T11:39:12.636Z,2.80
2022-08-08T11:41:43.315Z,3.00
2022-08-08T11:44:13.418Z,3.10
2022-08-08T11:46:41.415Z,2.80
2022-08-08T11:49:13.996Z,2.20
2022-08-08T11:51:49.857Z,2.90
2022-08-08T11:54:37.920Z,2.50
2022-08-08T11:57:23.767Z,3.10
2022-08-08T12:00:06.252Z,1.90
2022-08-08T12:02:55.426Z,2.90
2022-08-08T12:05:37.622Z,2.40
2022-08-08T12:08:05.882Z,2.40
2022-08-08T12:10:34.495Z,2.70
2022-08-08T12:13:12.165Z,2.60
2022-08-08T12:15:49.286Z,2.60
2022-08-08T12:18:25.507Z,2.30
2022-08-08T12:20:56.611Z,2.70
2022-08-08T12:23:43.931Z,2.20
2022-08-08T12:26:27.833Z,2.20
2022-08-08T12:29:42.022Z,2.70
2022-08-08T12:32:19.575Z,2.80
2022-08-08T12:35:01.410Z,2.90
2022-08-08T12:37:40.711Z,2.40
2022-08-08T12:40:23.007Z,2.50
2022-08-08T12:42:52.738Z,2.70
2022-08-08T12:45:58.204Z,2.70
2022-08-08T12:48:37.297Z,3.10
2022-08-08T12:51:11.142Z,2.90
2022-08-08T12:53:59.099Z,2.40
2022-08-08T12:56:38.574Z,2.60
2022-08-08T12:59:36.257Z,2.60
2022-08-08T13:02:20.174Z,2.60
2022-08-08T13:04:52.422Z,2.60
2022-08-08T13:08:04.069Z,2.80
2022-08-08T13:10:11.004Z,2.60
2022-08-08T13:12:47.167Z,2.80
2022-08-08T13:15:19.287Z,2.80
2022-08-08T13:18:01.467Z,3.10
2022-08-08T13:20:45.933Z,3.00
2022-08-08T13:23:36.865Z,2.70
2022-08-08T13:26:15.613Z,2.90
2022-08-08T13:28:45.698Z,3.00
2022-08-08T13:31:16.373Z,3.30
2022-08-08T13:33:50.041Z,3.20
2022-08-08T13:36:26.296Z,2.70
2022-08-08T13:39:00.084Z,3.70
2022-08-08T13:41:28.420Z,3.00
2022-08-08T13:44:07.843Z,3.40
2022-08-08T13:46:38.344Z,2.90
2022-08-08T13:50:37.487Z,3.40
2022-08-08T13:52:07.565Z,2.90
2022-08-08T13:54:44.100Z,3.20
2022-08-08T13:57:17.285Z,3.70
2022-08-08T13:59:48.457Z,3.00
2022-08-08T14:02:21.376Z,3.30
2022-08-08T14:05:21.789Z,3.20
2022-08-08T14:07:53.103Z,3.90
2022-08-08T14:10:32.918Z,3.40
2022-08-08T14:13:30.737Z,3.00
2022-08-08T14:16:15.886Z,4.40
2022-08-08T14:19:10.570Z,5.60
2022-08-08T14:21:51.875Z,5.80
2022-08-08T14:24:34.394Z,5.80
2022-08-08T14:27:01.539Z,4.90
2022-08-08T14:29:30.545Z,5.50
2022-08-08T14:32:11.008Z,6.60
2022-08-08T14:34:45.405Z,6.80
2022-08-08T14:37:21.032Z,7.60
2022-08-08T14:40:06.084Z,6.10
2022-08-08T14:42:55.006Z,8.00
2022-08-08T14:45:33.801Z,7.50
2022-08-08T14:48:17.814Z,8.50
2022-08-08T14:51:06.734Z,9.10
2022-08-08T14:53:55.029Z,8.00
2022-08-08T14:56:25.469Z,9.10
2022-08-08T14:58:56.380Z,9.90
2022-08-08T15:01:40.970Z,11.60
2022-08-08T15:04:11.000Z,12.50
2022-08-08T15:06:38.902Z,9.90
2022-08-08T15:09:07.227Z,13.00
2022-08-08T15:11:43.253Z,13.70
2022-08-08T15:14:15.116Z,12.90
2022-08-08T15:16:44.265Z,13.70
2022-08-08T15:19:11.569Z,14.50
2022-08-08T15:21:43.048Z,13.50
2022-08-08T15:24:14.294Z,12.90
2022-08-08T15:26:52.422Z,17.20
2022-08-08T15:29:24.493Z,11.40
2022-08-08T15:32:02.877Z,14.90
2022-08-08T15:34:41.271Z,16.00
2022-08-08T15:37:08.690Z,14.60
2022-08-08T15:39:39.433Z,16.30
2022-08-08T15:42:13.098Z,20.20
2022-08-08T15:44:42.096Z,19.00
2022-08-08T15:47:15.727Z,20.60
2022-08-08T15:49:48.292Z,21.90
2022-08-08T15:52:18.133Z,21.40
2022-08-08T15:54:51.681Z,22.00
2022-08-08T15:57:21.134Z,22.30
2022-08-08T16:00:06.075Z,23.80
2022-08-08T16:02:43.881Z,23.90
2022-08-08T16:05:17.058Z,24.70
2022-08-08T16:07:52.549Z,21.60
2022-08-08T16:13:10.726Z,22.20
2022-08-08T16:13:28.178Z,23.60
2022-08-08T16:16:17.142Z,23.10
2022-08-08T16:18:57.279Z,23.10
2022-08-08T16:21:32.013Z,25.90
2022-08-08T16:24:10.203Z,25.00
2022-08-08T16:26:42.275Z,20.40
2022-08-08T16:29:15.511Z,21.40
2022-08-08T16:31:48.909Z,25.30
2022-08-08T16:34:21.567Z,25.10
2022-08-08T16:36:52.668Z,21.70
2022-08-08T16:39:49.130Z,17.80
2022-08-08T16:42:18.814Z,21.20
2022-08-08T16:44:54.948Z,20.00
2022-08-08T16:47:40.655Z,19.90
2022-08-08T16:50:16.563Z,21.20
2022-08-08T16:55:24.121Z,20.30
2022-08-08T16:55:55.162Z,22.10
2022-08-08T16:58:32.678Z,21.10
2022-08-08T17:01:10.980Z,20.90
2022-08-08T17:04:01.508Z,19.80
2022-08-08T17:06:39.924Z,18.90
2022-08-08T17:09:15.270Z,20.80
2022-08-08T17:11:49.262Z,20.60
2022-08-08T17:14:27.336Z,17.80
2022-08-08T17:17:03.927Z,20.40
2022-08-08T17:19:31.977Z,20.80
2022-08-08T17:22:08.855Z,18.00
2022-08-08T17:24:35.657Z,17.60
2022-08-08T17:27:04.756Z,18.00
2022-08-08T17:29:36.195Z,17.00
2022-08-08T17:32:04.481Z,14.20
2022-08-08T17:34:54.850Z,15.50
2022-08-08T17:37:24.983Z,15.20
2022-08-08T17:40:10.823Z,14.80
2022-08-08T17:42:39.361Z,15.20
2022-08-08T17:45:07.734Z,13.00
2022-08-08T17:47:50.930Z,10.00
2022-08-08T17:50:17.978Z,7.50
2022-08-08T17:52:47.546Z,7.00
2022-08-08T17:56:07.798Z,5.40
2022-08-08T17:58:01.805Z,5.10
2022-08-08T18:00:30.852Z,4.80
2022-08-08T18:03:07.421Z,4.50
2022-08-08T18:05:49.697Z,3.20
2022-08-08T18:08:25.348Z,2.90
2022-08-08T18:11:16.829Z,2.90
2022-08-08T18:13:47.940Z,3.00
2022-08-08T18:16:20.654Z,2.50
2022-08-08T18:18:57.428Z,2.40
2022-08-08T18:21:59.410Z,2.00
2022-08-08T18:24:21.550Z,2.40
2022-08-08T18:26:53.857Z,2.10
2022-08-08T18:29:35.463Z,2.50
2022-08-08T18:32:08.389Z,2.30
2022-08-08T18:34:37.890Z,2.20
2022-08-08T18:37:08.340Z,2.30
2022-08-08T18:39:41.302Z,2.20
2022-08-08T18:42:16.567Z,1.90
2022-08-08T18:44:55.066Z,1.90
2022-08-08T18:47:25.189Z,1.80
2022-08-08T18:49:58.838Z,1.50
2022-08-08T18:52:28.381Z,1.70
2022-08-08T18:54:59.359Z,2.10
2022-08-08T18:57:40.951Z,2.00
2022-08-08T19:00:16.989Z,1.90
2022-08-08T19:02:55.810Z,1.90
2022-08-08T19:05:34.711Z,1.40
2022-08-08T19:08:23.959Z,1.60
2022-08-08T19:10:54.023Z,1.60
2022-08-08T19:13:24.511Z,1.80
2022-08-08T19:15:55.936Z,1.80
2022-08-08T19:18:33.362Z,1.40
2022-08-08T19:21:29.300Z,1.50
2022-08-08T19:23:57.581Z,1.80
2022-08-08T19:26:29.956Z,1.50
2022-08-08T19:29:01.290Z,1.50
2022-08-08T19:31:31.481Z,1.30
2022-08-08T19:34:36.086Z,1.90
2022-08-08T19:36:58.562Z,1.50
2022-08-08T19:39:34.982Z,1.60
2022-08-08T19:42:05.125Z,1.40
2022-08-08T19:44:42.767Z,1.50
2022-08-08T19:47:12.422Z,1.30
2022-08-08T19:49:39.773Z,1.50
2022-08-08T19:52:13.477Z,1.60
2022-08-08T19:54:43.071Z,1.60
2022-08-08T19:57:11.386Z,1.50
2022-08-08T19:59:42.166Z,1.20
2022-08-08T20:02:10.716Z,1.90
2022-08-08T20:04:38.478Z,1.40
2022-08-08T20:08:28.066Z,1.50
2022-08-08T20:10:00.052Z,1.70
2022-08-08T20:12:34.447Z,1.50
2022-08-08T20:15:16.930Z,1.40
2022-08-08T20:17:47.609Z,1.30
2022-08-08T20:20:19.690Z,1.50
2022-08-08T20:22:52.677Z,1.40
2022-08-08T20:25:21.751Z,1.30
2022-08-08T20:27:50.565Z,1.30
2022-08-08T20:30:53.014Z,1.40
2022-08-08T20:33:19.926Z,1.40
2022-08-08T20:35:57.574Z,1.70
2022-08-08T20:38:32.777Z,1.60
2022-08-08T20:41:05.949Z,1.50
2022-08-08T20:43:49.459Z,1.40
2022-08-08T20:46:25.446Z,1.50
2022-08-08T20:48:58.371Z,1.10
2022-08-08T20:51:32.282Z,1.30
2022-08-08T20:54:09.506Z,1.60
2022-08-08T20:57:04.450Z,1.50
2022-08-08T20:59:29.106Z,1.40
2022-08-08T21:02:06.344Z,1.50
2022-08-08T21:04:36.772Z,1.40
2022-08-08T21:07:08.149Z,1.30
2022-08-08T21:09:48.764Z,1.40
2022-08-08T21:12:33.026Z,1.20
2022-08-08T21:15:09.687Z,1.00
2022-08-08T21:17:37.071Z,1.20
2022-08-08T21:20:05.036Z,1.00
2022-08-08T21:22:31.950Z,1.20
2022-08-08T21:24:58.700Z,1.20
2022-08-08T21:28:05.806Z,1.40
2022-08-08T21:30:19.300Z,1.30
2022-08-08T21:32:52.037Z,1.00
2022-08-08T21:36:18.415Z,1.40
2022-08-08T21:38:16.383Z,1.30
2022-08-08T21:40:54.902Z,1.10
2022-08-08T21:43:33.068Z,1.30
2022-08-08T21:48:08.838Z,1.10
2022-08-08T21:48:54.945Z,0.90
2022-08-08T21:54:31.998Z,1.30
2022-08-08T21:54:52.326Z,1.00
2022-08-08T21:57:06.182Z,1.10
2022-08-08T22:00:03.016Z,1.40
2022-08-08T22:02:23.283Z,1.40
2022-08-08T22:04:55.904Z,1.30
2022-08-08T22:07:40.230Z,1.10
2022-08-08T22:10:28.792Z,1.30
2022-08-08T22:13:17.277Z,1.50
2022-08-08T22:15:58.646Z,1.30
2022-08-08T22:18:32.636Z,1.00
2022-08-08T22:21:14.057Z,1.10
2022-08-08T22:23:51.517Z,1.00
2022-08-08T22:26:29.621Z,1.50
2022-08-08T22:29:13.990Z,1.30
2022-08-08T22:31:58.111Z,1.30
2022-08-08T22:34:30.871Z,1.10
2022-08-08T22:36:57.680Z,1.20
2022-08-08T22:39:28.296Z,1.40
2022-08-08T22:42:10.183Z,1.20
2022-08-08T22:44:38.102Z,0.90
2022-08-08T22:47:15.936Z,1.10
2022-08-08T22:49:45.073Z,1.10
2022-08-08T22:52:25.941Z,1.10
2022-08-08T22:54:58.714Z,1.00
2022-08-08T22:57:44.461Z,1.00
2022-08-08T23:00:18.094Z,1.10
2022-08-08T23:02:50.218Z,1.30
2022-08-08T23:05:17.749Z,1.30
2022-08-08T23:07:57.822Z,1.20
2022-08-08T23:10:27.654Z,1.00
2022-08-08T23:12:55.325Z,1.20
2022-08-08T23:16:38.058Z,1.20
2022-08-08T23:18:11.705Z,1.20
2022-08-08T23:20:43.512Z,1.30
2022-08-08T23:23:12.514Z,1.40
2022-08-08T23:25:48.538Z,1.40
2022-08-08T23:28:18.667Z,1.30
2022-08-08T23:30:47.623Z,1.10
2022-08-08T23:33:35.739Z,1.50
2022-08-08T23:36:08.409Z,1.30
2022-08-08T23:38:44.247Z,1.70
2022-08-08T23:41:24.716Z,1.40
2022-08-08T23:43:56.481Z,1.90
2022-08-08T23:49:02.240Z,1.60
2022-08-08T23:49:18.011Z,1.90
2022-08-08T23:52:06.596Z,1.50
2022-08-08T23:54:42.440Z,1.50
2022-08-08T23:57:26.848Z,1.40
